DLH6KK EHAM-EDDM
Flight info
| Callsign | DLH6KK |
|---|---|
| Flight time | N/A |
| Altitude | 33000 |
| Route | EDUPO Z739 MISGO DCT DOJOH DCT DODEN DCT TABUM DCT BOMBI T104 HAREM/N0390F270 T104 ROKIL ROKIL1A |
| Aircraft | A320/M-SDE3FGHIRWY/LB1 |
Departure
| Time | 2026-04-29 11:20 |
|---|---|
| Airport | Amsterdam Airport Schiphol (EHAM) |
Arrival
| Time | N/A |
|---|---|
| Airport | Munich Airport (EDDM) |
| Time | Latitude | Longitude | Altitude | Speed | Heading |
|---|---|---|---|---|---|
| 2026-04-29 10:38 | 52.30408 | 4.76361 | -2 ft | 0 kts | 237° |
| 2026-04-29 10:55 | 52.30412 | 4.76369 | -2 ft | 2 kts | 237° |
| 2026-04-29 10:56 | 52.30421 | 4.76393 | -2 ft | 2 kts | 237° |
| 2026-04-29 10:56 | 52.30432 | 4.76414 | -2 ft | 3 kts | 204° |
| 2026-04-29 10:56 | 52.30450 | 4.76421 | -2 ft | 3 kts | 168° |
| 2026-04-29 10:56 | 52.30456 | 4.76419 | -2 ft | 0 kts | 155° |
| 2026-04-29 11:01 | 52.30429 | 4.76443 | -2 ft | 0 kts | 150° |
| 2026-04-29 11:03 | 52.30428 | 4.76444 | -2 ft | 6 kts | 150° |
| 2026-04-29 11:03 | 52.30330 | 4.76526 | -2 ft | 16 kts | 183° |
| 2026-04-29 11:03 | 52.30258 | 4.76426 | -2 ft | 13 kts | 238° |
| 2026-04-29 11:03 | 52.30208 | 4.76294 | -2 ft | 18 kts | 237° |
| 2026-04-29 11:04 | 52.30111 | 4.76042 | -3 ft | 32 kts | 238° |
| 2026-04-29 11:04 | 52.29996 | 4.75743 | -3 ft | 29 kts | 237° |
| 2026-04-29 11:04 | 52.29895 | 4.75477 | -2 ft | 27 kts | 237° |
| 2026-04-29 11:04 | 52.29843 | 4.75221 | -2 ft | 23 kts | 287° |
| 2026-04-29 11:05 | 52.29938 | 4.75014 | -3 ft | 23 kts | 311° |
| 2026-04-29 11:05 | 52.30049 | 4.74808 | -3 ft | 25 kts | 311° |
| 2026-04-29 11:05 | 52.30165 | 4.74591 | -3 ft | 26 kts | 311° |
| 2026-04-29 11:05 | 52.30289 | 4.74362 | -2 ft | 28 kts | 310° |
| 2026-04-29 11:06 | 52.30442 | 4.74194 | -2 ft | 27 kts | 353° |
| 2026-04-29 11:06 | 52.30629 | 4.74209 | -2 ft | 26 kts | 3° |
| 2026-04-29 11:06 | 52.30802 | 4.74224 | -3 ft | 22 kts | 4° |
| 2026-04-29 11:06 | 52.30955 | 4.74239 | -3 ft | 22 kts | 3° |
| 2026-04-29 11:07 | 52.31113 | 4.74254 | -2 ft | 24 kts | 3° |
| 2026-04-29 11:07 | 52.31284 | 4.74270 | -2 ft | 25 kts | 4° |
| 2026-04-29 11:07 | 52.31478 | 4.74288 | -2 ft | 32 kts | 3° |
| 2026-04-29 11:07 | 52.31688 | 4.74307 | 0 ft | 28 kts | 4° |
| 2026-04-29 11:08 | 52.31857 | 4.74323 | -5 ft | 23 kts | 4° |
| 2026-04-29 11:08 | 52.31996 | 4.74325 | -6 ft | 16 kts | 344° |
| 2026-04-29 11:08 | 52.32033 | 4.74177 | -6 ft | 14 kts | 272° |
| 2026-04-29 11:08 | 52.32038 | 4.74005 | -5 ft | 17 kts | 272° |
| 2026-04-29 11:09 | 52.32044 | 4.73799 | 0 ft | 17 kts | 263° |
| 2026-04-29 11:09 | 52.32052 | 4.73619 | 1 ft | 18 kts | 279° |
| 2026-04-29 11:09 | 52.32096 | 4.73343 | 0 ft | 26 kts | 314° |
| 2026-04-29 11:09 | 52.32236 | 4.73148 | -2 ft | 28 kts | 320° |
| 2026-04-29 11:10 | 52.32388 | 4.72933 | -3 ft | 30 kts | 319° |
| 2026-04-29 11:10 | 52.32546 | 4.72709 | -3 ft | 31 kts | 320° |
| 2026-04-29 11:10 | 52.32704 | 4.72471 | -2 ft | 27 kts | 311° |
| 2026-04-29 11:10 | 52.32798 | 4.72299 | 0 ft | 14 kts | 312° |
| 2026-04-29 11:11 | 52.32842 | 4.72166 | -2 ft | 7 kts | 271° |
| 2026-04-29 11:11 | 52.32841 | 4.72113 | -3 ft | 0 kts | 265° |
| 2026-04-29 11:11 | 52.32840 | 4.72101 | -3 ft | 4 kts | 265° |
| 2026-04-29 11:11 | 52.32837 | 4.72035 | -3 ft | 7 kts | 267° |
| 2026-04-29 11:12 | 52.32854 | 4.71934 | -4 ft | 10 kts | 309° |
| 2026-04-29 11:12 | 52.32929 | 4.71795 | -2 ft | 26 kts | 311° |
| 2026-04-29 11:12 | 52.33051 | 4.71564 | -1 ft | 26 kts | 303° |
| 2026-04-29 11:12 | 52.33056 | 4.71382 | -1 ft | 16 kts | 225° |
| 2026-04-29 11:13 | 52.33002 | 4.71306 | -3 ft | 0 kts | 221° |
| 2026-04-29 11:13 | 52.33000 | 4.71303 | -3 ft | 2 kts | 221° |
| 2026-04-29 11:14 | 52.32969 | 4.71256 | -3 ft | 8 kts | 222° |
| 2026-04-29 11:14 | 52.32935 | 4.71205 | -2 ft | 6 kts | 222° |
| 2026-04-29 11:14 | 52.32908 | 4.71166 | -3 ft | 5 kts | 221° |
| 2026-04-29 11:14 | 52.32882 | 4.71124 | -3 ft | 1 kts | 232° |
| 2026-04-29 11:16 | 52.32876 | 4.71111 | -3 ft | 3 kts | 235° |
| 2026-04-29 11:16 | 52.32865 | 4.71071 | -4 ft | 4 kts | 252° |
| 2026-04-29 11:16 | 52.32864 | 4.71050 | -4 ft | 0 kts | 266° |
| 2026-04-29 11:18 | 52.32864 | 4.71044 | -4 ft | 2 kts | 268° |
| 2026-04-29 11:18 | 52.32864 | 4.71002 | -4 ft | 4 kts | 272° |
| 2026-04-29 11:18 | 52.32867 | 4.70946 | -3 ft | 5 kts | 278° |
| 2026-04-29 11:19 | 52.32896 | 4.70890 | -3 ft | 8 kts | 335° |
| 2026-04-29 11:19 | 52.32925 | 4.70889 | -4 ft | 1 kts | 4° |
| 2026-04-29 11:19 | 52.32998 | 4.70897 | -6 ft | 39 kts | 4° |
| 2026-04-29 11:19 | 52.33520 | 4.70945 | -2 ft | 107 kts | 2° |
| 2026-04-29 11:20 | 52.34444 | 4.71065 | -2 ft | 157 kts | 13° |
| 2026-04-29 11:20 | 52.35574 | 4.71270 | 497 ft | 167 kts | 7° |
| 2026-04-29 11:20 | 52.36745 | 4.71295 | 1370 ft | 170 kts | 8° |
| 2026-04-29 11:20 | 52.37991 | 4.71391 | 1870 ft | 191 kts | 9° |
| 2026-04-29 11:21 | 52.39385 | 4.71529 | 2362 ft | 211 kts | 9° |
| 2026-04-29 11:21 | 52.40915 | 4.71684 | 2906 ft | 228 kts | 9° |
| 2026-04-29 11:21 | 52.42468 | 4.72214 | 3641 ft | 232 kts | 27° |
| 2026-04-29 11:21 | 52.43950 | 4.73483 | 4228 ft | 247 kts | 33° |
| 2026-04-29 11:22 | 52.45461 | 4.74867 | 5152 ft | 250 kts | 33° |
| 2026-04-29 11:22 | 52.46829 | 4.76617 | 6050 ft | 251 kts | 51° |
| 2026-04-29 11:22 | 52.47797 | 4.79008 | 6910 ft | 254 kts | 68° |
| 2026-04-29 11:22 | 52.48249 | 4.81805 | 7749 ft | 256 kts | 85° |
| 2026-04-29 11:23 | 52.48391 | 4.84737 | 8644 ft | 260 kts | 86° |
| 2026-04-29 11:23 | 52.48476 | 4.87727 | 9512 ft | 265 kts | 94° |
| 2026-04-29 11:23 | 52.48052 | 4.90681 | 10347 ft | 270 kts | 112° |
| 2026-04-29 11:23 | 52.47026 | 4.93357 | 10800 ft | 291 kts | 131° |
| 2026-04-29 11:24 | 52.45382 | 4.95522 | 11108 ft | 314 kts | 143° |
| 2026-04-29 11:24 | 52.43561 | 4.97594 | 11756 ft | 322 kts | 142° |
| 2026-04-29 11:24 | 52.41715 | 4.99705 | 12525 ft | 326 kts | 142° |
| 2026-04-29 11:24 | 52.39856 | 5.01842 | 13305 ft | 329 kts | 142° |
| 2026-04-29 11:25 | 52.37977 | 5.04009 | 14077 ft | 332 kts | 142° |
| 2026-04-29 11:25 | 52.36080 | 5.06203 | 14753 ft | 335 kts | 142° |
| 2026-04-29 11:25 | 52.34172 | 5.08430 | 15411 ft | 338 kts | 140° |
| 2026-04-29 11:25 | 52.32450 | 5.11057 | 16049 ft | 340 kts | 130° |
| 2026-04-29 11:26 | 52.29268 | 5.16889 | 17357 ft | 347 kts | 130° |
| 2026-04-29 11:26 | 52.27648 | 5.19847 | 18007 ft | 351 kts | 130° |
| 2026-04-29 11:26 | 52.26005 | 5.22830 | 18627 ft | 355 kts | 130° |
| 2026-04-29 11:27 | 52.24364 | 5.25863 | 19181 ft | 358 kts | 127° |
| 2026-04-29 11:27 | 52.22901 | 5.29166 | 19724 ft | 361 kts | 124° |
| 2026-04-29 11:27 | 52.21445 | 5.32529 | 20295 ft | 364 kts | 124° |
| 2026-04-29 11:27 | 52.19997 | 5.35875 | 20842 ft | 368 kts | 124° |
| 2026-04-29 11:28 | 52.18515 | 5.39293 | 21401 ft | 371 kts | 124° |
| 2026-04-29 11:28 | 52.17016 | 5.42743 | 21938 ft | 374 kts | 124° |
| 2026-04-29 11:28 | 52.15504 | 5.46214 | 22487 ft | 378 kts | 124° |
| 2026-04-29 11:28 | 52.13970 | 5.49726 | 23050 ft | 382 kts | 125° |
| 2026-04-29 11:29 | 52.12422 | 5.53260 | 23578 ft | 386 kts | 125° |
| 2026-04-29 11:29 | 52.10854 | 5.56829 | 24051 ft | 389 kts | 125° |
| 2026-04-29 11:29 | 52.09270 | 5.60431 | 24467 ft | 393 kts | 125° |
| 2026-04-29 11:29 | 52.07674 | 5.64063 | 24888 ft | 396 kts | 125° |
| 2026-04-29 11:30 | 52.06047 | 5.67703 | 25285 ft | 400 kts | 128° |
| 2026-04-29 11:30 | 52.04233 | 5.71150 | 25669 ft | 403 kts | 130° |
| 2026-04-29 11:30 | 52.02387 | 5.74599 | 26064 ft | 406 kts | 130° |
| 2026-04-29 11:30 | 52.00520 | 5.78075 | 26435 ft | 410 kts | 130° |
| 2026-04-29 11:31 | 51.98639 | 5.81576 | 26752 ft | 414 kts | 130° |
| 2026-04-29 11:31 | 51.96726 | 5.85135 | 26882 ft | 423 kts | 130° |
| 2026-04-29 11:31 | 51.94778 | 5.88766 | 27005 ft | 431 kts | 130° |
| 2026-04-29 11:31 | 51.92795 | 5.92469 | 27139 ft | 438 kts | 130° |
| 2026-04-29 11:32 | 51.90782 | 5.96224 | 27269 ft | 445 kts | 130° |
| 2026-04-29 11:32 | 51.88737 | 6.00028 | 27399 ft | 450 kts | 131° |
| 2026-04-29 11:32 | 51.86668 | 6.03869 | 27532 ft | 455 kts | 131° |
| 2026-04-29 11:32 | 51.84576 | 6.07751 | 27663 ft | 460 kts | 131° |
| 2026-04-29 11:33 | 51.82463 | 6.11653 | 27852 ft | 462 kts | 131° |
| 2026-04-29 11:33 | 51.80335 | 6.15557 | 28107 ft | 462 kts | 131° |
| 2026-04-29 11:33 | 51.78207 | 6.19448 | 28390 ft | 463 kts | 131° |
| 2026-04-29 11:33 | 51.76074 | 6.23340 | 28680 ft | 462 kts | 131° |
| 2026-04-29 11:34 | 51.73944 | 6.27224 | 28977 ft | 462 kts | 131° |
| 2026-04-29 11:34 | 51.71814 | 6.31104 | 29262 ft | 462 kts | 131° |
| 2026-04-29 11:34 | 51.69680 | 6.34988 | 29576 ft | 462 kts | 131° |
| 2026-04-29 11:34 | 51.67556 | 6.38853 | 29879 ft | 462 kts | 131° |
| 2026-04-29 11:35 | 51.65419 | 6.42727 | 30193 ft | 462 kts | 131° |
| 2026-04-29 11:35 | 51.63285 | 6.46589 | 30485 ft | 461 kts | 131° |
| 2026-04-29 11:35 | 51.61155 | 6.50445 | 30753 ft | 461 kts | 131° |
| 2026-04-29 11:35 | 51.59026 | 6.54298 | 31029 ft | 460 kts | 131° |
| 2026-04-29 11:36 | 51.57615 | 6.56848 | 31200 ft | 460 kts | 131° |
| 2026-04-29 11:36 | 51.55486 | 6.60690 | 31444 ft | 460 kts | 132° |
| 2026-04-29 11:36 | 51.53357 | 6.64525 | 31706 ft | 460 kts | 132° |
| 2026-04-29 11:36 | 51.51224 | 6.68355 | 31984 ft | 460 kts | 132° |
| 2026-04-29 11:37 | 51.49092 | 6.72182 | 32245 ft | 460 kts | 132° |
| 2026-04-29 11:37 | 51.46960 | 6.76005 | 32507 ft | 459 kts | 132° |
| 2026-04-29 11:37 | 51.44831 | 6.79813 | 32767 ft | 459 kts | 133° |
| 2026-04-29 11:37 | 51.42696 | 6.83621 | 33048 ft | 459 kts | 133° |
| 2026-04-29 11:38 | 51.40560 | 6.87416 | 33273 ft | 459 kts | 133° |
| 2026-04-29 11:38 | 51.38358 | 6.91141 | 33333 ft | 462 kts | 135° |
| 2026-04-29 11:38 | 51.33733 | 6.98341 | 33328 ft | 465 kts | 138° |
| 2026-04-29 11:39 | 51.29018 | 7.05409 | 33327 ft | 465 kts | 138° |
| 2026-04-29 11:39 | 51.24328 | 7.12560 | 33328 ft | 466 kts | 137° |
| 2026-04-29 11:40 | 51.19674 | 7.19767 | 33322 ft | 467 kts | 137° |
| 2026-04-29 11:40 | 51.15011 | 7.26971 | 33312 ft | 467 kts | 137° |
| 2026-04-29 11:41 | 51.10331 | 7.34142 | 33307 ft | 467 kts | 138° |
| 2026-04-29 11:41 | 51.05628 | 7.41285 | 33308 ft | 467 kts | 138° |
| 2026-04-29 11:42 | 51.00936 | 7.48428 | 33308 ft | 468 kts | 138° |
| 2026-04-29 11:42 | 50.96240 | 7.55575 | 33307 ft | 468 kts | 138° |
| 2026-04-29 11:43 | 50.91529 | 7.62701 | 33309 ft | 468 kts | 138° |
| 2026-04-29 11:43 | 50.86817 | 7.69808 | 33313 ft | 468 kts | 138° |
| 2026-04-29 11:44 | 50.82101 | 7.76905 | 33314 ft | 468 kts | 139° |
| 2026-04-29 11:44 | 50.77357 | 7.83975 | 33317 ft | 469 kts | 139° |
| 2026-04-29 11:45 | 50.72605 | 7.91022 | 33315 ft | 469 kts | 139° |
| 2026-04-29 11:45 | 50.70249 | 7.94519 | 33328 ft | 458 kts | 139° |
| 2026-04-29 11:45 | 50.67971 | 7.97904 | 33329 ft | 445 kts | 139° |
| 2026-04-29 11:46 | 50.63485 | 8.04533 | 33328 ft | 440 kts | 140° |
| 2026-04-29 11:46 | 50.58844 | 8.10736 | 33327 ft | 436 kts | 150° |
| 2026-04-29 11:47 | 50.53736 | 8.15867 | 33323 ft | 436 kts | 150° |
| 2026-04-29 11:47 | 50.48624 | 8.20987 | 33317 ft | 436 kts | 150° |
| 2026-04-29 11:48 | 50.43507 | 8.26114 | 33305 ft | 436 kts | 150° |
| 2026-04-29 11:48 | 50.38397 | 8.31241 | 33289 ft | 436 kts | 151° |
| 2026-04-29 11:49 | 50.33273 | 8.36354 | 33278 ft | 436 kts | 151° |
| 2026-04-29 11:49 | 50.28333 | 8.41904 | 33269 ft | 441 kts | 139° |
| 2026-04-29 11:50 | 50.24135 | 8.48939 | 33266 ft | 444 kts | 136° |
| 2026-04-29 11:50 | 50.19942 | 8.56037 | 33260 ft | 444 kts | 136° |
| 2026-04-29 11:51 | 50.15767 | 8.63060 | 33257 ft | 445 kts | 136° |
| 2026-04-29 11:51 | 50.11561 | 8.70145 | 33260 ft | 445 kts | 136° |
| 2026-04-29 11:52 | 50.07346 | 8.77229 | 33259 ft | 446 kts | 136° |
| 2026-04-29 11:52 | 50.03013 | 8.84120 | 33263 ft | 445 kts | 140° |
| 2026-04-29 11:53 | 49.98423 | 8.90551 | 33261 ft | 444 kts | 142° |
| 2026-04-29 11:53 | 49.93777 | 8.96867 | 33264 ft | 444 kts | 142° |
| 2026-04-29 11:54 | 49.89161 | 9.03287 | 33263 ft | 445 kts | 141° |
| 2026-04-29 11:54 | 49.84576 | 9.09758 | 33265 ft | 446 kts | 141° |
| 2026-04-29 11:55 | 49.80017 | 9.16174 | 33260 ft | 446 kts | 141° |
| 2026-04-29 11:55 | 49.75409 | 9.22609 | 33259 ft | 446 kts | 141° |
| 2026-04-29 11:56 | 49.70794 | 9.29025 | 33258 ft | 446 kts | 141° |
| 2026-04-29 11:56 | 49.66172 | 9.35440 | 33253 ft | 447 kts | 141° |
| 2026-04-29 11:57 | 49.61588 | 9.41922 | 33248 ft | 449 kts | 136° |
| 2026-04-29 11:57 | 49.57448 | 9.49171 | 33241 ft | 451 kts | 135° |
| 2026-04-29 11:58 | 49.53299 | 9.56442 | 33238 ft | 452 kts | 135° |
| 2026-04-29 11:58 | 49.49136 | 9.63719 | 33230 ft | 453 kts | 135° |
| 2026-04-29 11:59 | 49.44967 | 9.70997 | 32898 ft | 452 kts | 135° |
| 2026-04-29 11:59 | 49.42897 | 9.74604 | 32339 ft | 449 kts | 135° |
| 2026-04-29 11:59 | 49.40836 | 9.78183 | 31809 ft | 446 kts | 135° |
| 2026-04-29 12:00 | 49.38787 | 9.81734 | 31292 ft | 443 kts | 136° |
| 2026-04-29 12:00 | 49.36748 | 9.85269 | 30783 ft | 441 kts | 136° |
| 2026-04-29 12:00 | 49.34724 | 9.88773 | 30281 ft | 438 kts | 136° |
| 2026-04-29 12:00 | 49.32704 | 9.92265 | 29724 ft | 435 kts | 136° |
| 2026-04-29 12:01 | 49.30702 | 9.95714 | 29215 ft | 432 kts | 136° |
| 2026-04-29 12:01 | 49.28710 | 9.99136 | 28715 ft | 428 kts | 136° |
| 2026-04-29 12:01 | 49.26737 | 10.02518 | 28234 ft | 424 kts | 136° |
| 2026-04-29 12:01 | 49.24778 | 10.05871 | 27776 ft | 420 kts | 136° |
| 2026-04-29 12:02 | 49.22835 | 10.09189 | 27321 ft | 417 kts | 135° |
| 2026-04-29 12:02 | 49.20909 | 10.12478 | 26888 ft | 413 kts | 135° |
| 2026-04-29 12:02 | 49.19006 | 10.15737 | 26455 ft | 410 kts | 135° |
| 2026-04-29 12:02 | 49.17116 | 10.18974 | 26034 ft | 406 kts | 135° |
| 2026-04-29 12:03 | 49.15240 | 10.22182 | 25618 ft | 403 kts | 135° |
| 2026-04-29 12:03 | 49.13375 | 10.25348 | 25207 ft | 400 kts | 135° |
| 2026-04-29 12:03 | 49.11493 | 10.28447 | 24787 ft | 396 kts | 136° |
| 2026-04-29 12:03 | 49.09604 | 10.31485 | 24392 ft | 393 kts | 136° |
| 2026-04-29 12:04 | 49.07722 | 10.34473 | 23993 ft | 389 kts | 136° |
| 2026-04-29 12:04 | 49.05851 | 10.37436 | 23556 ft | 386 kts | 136° |
| 2026-04-29 12:04 | 49.03989 | 10.40391 | 22908 ft | 388 kts | 136° |
| 2026-04-29 12:04 | 49.02134 | 10.43350 | 22459 ft | 384 kts | 135° |
| 2026-04-29 12:05 | 49.00297 | 10.46293 | 22005 ft | 381 kts | 135° |
| 2026-04-29 12:05 | 48.98477 | 10.49207 | 21550 ft | 379 kts | 135° |
| 2026-04-29 12:05 | 48.96664 | 10.52104 | 21097 ft | 377 kts | 135° |
| 2026-04-29 12:05 | 48.94860 | 10.54978 | 20646 ft | 375 kts | 135° |
| 2026-04-29 12:06 | 48.93063 | 10.57835 | 20193 ft | 373 kts | 135° |
| 2026-04-29 12:06 | 48.91272 | 10.60680 | 19755 ft | 371 kts | 135° |
| 2026-04-29 12:06 | 48.89500 | 10.63490 | 19406 ft | 367 kts | 135° |
| 2026-04-29 12:06 | 48.87736 | 10.66283 | 18948 ft | 366 kts | 135° |
| 2026-04-29 12:07 | 48.85973 | 10.69070 | 18480 ft | 366 kts | 135° |
| 2026-04-29 12:07 | 48.84208 | 10.71856 | 17939 ft | 366 kts | 135° |
| 2026-04-29 12:07 | 48.82441 | 10.74643 | 17401 ft | 366 kts | 135° |
| 2026-04-29 12:07 | 48.80676 | 10.77424 | 16866 ft | 366 kts | 135° |
| 2026-04-29 12:08 | 48.78907 | 10.80208 | 16420 ft | 364 kts | 135° |
| 2026-04-29 12:08 | 48.77166 | 10.82947 | 16156 ft | 358 kts | 135° |
| 2026-04-29 12:08 | 48.75443 | 10.85656 | 15762 ft | 356 kts | 135° |
| 2026-04-29 12:08 | 48.73728 | 10.88350 | 15323 ft | 355 kts | 135° |
| 2026-04-29 12:09 | 48.72016 | 10.91035 | 14890 ft | 354 kts | 135° |
| 2026-04-29 12:09 | 48.70331 | 10.93673 | 14452 ft | 353 kts | 135° |
| 2026-04-29 12:09 | 48.68626 | 10.96338 | 14009 ft | 352 kts | 135° |
| 2026-04-29 12:09 | 48.66928 | 10.98985 | 13589 ft | 350 kts | 135° |
| 2026-04-29 12:10 | 48.65240 | 11.01616 | 13144 ft | 347 kts | 135° |
| 2026-04-29 12:10 | 48.63569 | 11.04220 | 12708 ft | 344 kts | 135° |
| 2026-04-29 12:10 | 48.61911 | 11.06802 | 12280 ft | 342 kts | 134° |
| 2026-04-29 12:10 | 48.60264 | 11.09363 | 11883 ft | 339 kts | 134° |
| 2026-04-29 12:11 | 48.58626 | 11.11908 | 11524 ft | 335 kts | 134° |
| 2026-04-29 12:11 | 48.57011 | 11.14416 | 11100 ft | 333 kts | 134° |
| 2026-04-29 12:11 | 48.55401 | 11.16911 | 10691 ft | 331 kts | 134° |
| 2026-04-29 12:11 | 48.53811 | 11.19375 | 10484 ft | 322 kts | 133° |
| 2026-04-29 12:12 | 48.52277 | 11.21751 | 10358 ft | 311 kts | 133° |
| 2026-04-29 12:12 | 48.50788 | 11.24052 | 10229 ft | 301 kts | 133° |
| 2026-04-29 12:12 | 48.49347 | 11.26274 | 10225 ft | 294 kts | 133° |
| 2026-04-29 12:12 | 48.47919 | 11.28478 | 10227 ft | 293 kts | 133° |
| 2026-04-29 12:13 | 48.46496 | 11.30674 | 10226 ft | 293 kts | 133° |
| 2026-04-29 12:13 | 48.45089 | 11.32849 | 10224 ft | 293 kts | 133° |
| 2026-04-29 12:13 | 48.43665 | 11.35042 | 10231 ft | 293 kts | 133° |
| 2026-04-29 12:13 | 48.42242 | 11.37232 | 10231 ft | 290 kts | 133° |
| 2026-04-29 12:14 | 48.40864 | 11.39350 | 10227 ft | 276 kts | 133° |
| 2026-04-29 12:14 | 48.39556 | 11.41356 | 10227 ft | 261 kts | 133° |